Time;durP1;ratioP1;P1;durP2;ratioP2;P2;SDS_P1;SDS_P2;PMS_P1;PMS_P2;Temp;Humidity;BMP_temperature;BMP_pressure;BME280_temperature;BME280_humidity;BME280_pressure;Samples;Min_cycle;Max_cycle;Signal;HPM_P1;HPM_P2
2022/11/01 00:02:04;;;;;;;9.50;4.12;;;;;;;4.48;76.13;100363.73;1698476;84;21039;-74
2022/11/01 00:04:31;;;;;;;6.00;3.70;;;;;;;4.48;76.23;100357.58;1705612;82;21590;-70
2022/11/01 00:06:59;;;;;;;6.50;3.95;;;;;;;4.47;76.25;100356.75;1679333;85;20954;-69
2022/11/01 00:09:25;;;;;;;6.33;3.45;;;;;;;4.45;76.31;100352.14;1658673;85;22097;-69
2022/11/01 00:11:54;;;;;;;5.35;3.80;;;;;;;4.43;76.47;100350.67;1732507;81;21043;-73
2022/11/01 00:14:20;;;;;;;8.05;4.10;;;;;;;4.39;76.67;100351.06;1693627;84;22275;-76
2022/11/01 00:16:47;;;;;;;13.68;4.22;;;;;;;4.37;76.70;100350.93;1689910;84;21054;-77
2022/11/01 00:19:15;;;;;;;5.72;4.25;;;;;;;4.33;76.82;100351.01;1722742;82;20960;-79
2022/11/01 00:21:42;;;;;;;6.97;4.47;;;;;;;4.27;77.02;100352.59;1693862;84;21602;-80
2022/11/01 00:24:09;;;;;;;8.38;4.60;;;;;;;4.24;77.21;100358.31;1674730;84;21508;-68
2022/11/01 00:26:36;;;;;;;8.28;4.90;;;;;;;4.20;77.29;100350.91;1674793;84;20947;-68
2022/11/01 00:29:03;;;;;;;6.20;4.15;;;;;;;4.22;77.50;100359.00;1698410;84;21574;-69
2022/11/01 00:31:30;;;;;;;6.85;4.15;;;;;;;4.22;77.40;100347.56;1698462;84;21558;-72
2022/11/01 00:33:56;;;;;;;8.58;3.75;;;;;;;4.21;77.54;100349.39;1711587;82;21551;-71
2022/11/01 00:36:23;;;;;;;5.53;3.83;;;;;;;4.21;77.61;100357.38;1682350;85;21082;-71
2022/11/01 00:38:51;;;;;;;5.50;4.05;;;;;;;4.20;77.61;100349.07;1681953;85;21678;-68
2022/11/01 00:41:22;;;;;;;4.85;3.87;;;;;;;4.17;77.64;100348.64;1680607;84;21091;-68
2022/11/01 00:43:48;;;;;;;4.60;3.27;;;;;;;4.13;77.70;100354.01;1650484;86;21046;-69
2022/11/01 00:46:15;;;;;;;6.03;4.50;;;;;;;4.00;77.90;100350.73;1653634;85;21159;-72
2022/11/01 00:48:43;;;;;;;7.45;3.52;;;;;;;4.00;77.90;100350.73;1627317;86;21054;-73
2022/11/01 00:51:10;;;;;;;8.33;3.58;;;;;;;3.99;78.22;100350.41;1698723;83;21038;-69
2022/11/01 00:53:37;;;;;;;6.55;3.40;;;;;;;3.94;78.69;100357.64;1714018;82;21022;-69
2022/11/01 00:56:05;;;;;;;12.85;4.85;;;;;;;3.94;78.69;100357.64;1708074;82;21003;-70
2022/11/01 00:58:34;;;;;;;7.08;3.75;;;;;;;3.98;78.90;100359.94;1698627;84;21108;-71
2022/11/01 01:01:00;;;;;;;7.25;3.40;;;;;;;4.00;78.98;100353.90;1697055;84;21326;-69
2022/11/01 01:03:27;;;;;;;5.05;3.58;;;;;;;4.01;79.03;100350.23;1708673;82;21042;-70
2022/11/01 01:05:54;;;;;;;6.35;3.58;;;;;;;4.00;79.03;100357.39;1680983;84;20934;-72
2022/11/01 01:08:22;;;;;;;7.17;3.17;;;;;;;3.99;79.06;100354.41;1678764;85;21113;-72
2022/11/01 01:10:50;;;;;;;6.05;3.52;;;;;;;3.90;79.47;100351.55;1709051;83;21499;-71
2022/11/01 01:13:19;;;;;;;10.28;3.90;;;;;;;3.90;79.47;100351.55;1702412;83;21083;-69
2022/11/01 01:15:45;;;;;;;5.35;3.10;;;;;;;3.87;79.59;100355.44;1703185;83;21078;-71
2022/11/01 01:18:14;;;;;;;8.63;4.55;;;;;;;3.87;79.73;100355.94;1715169;83;20948;-70
2022/11/01 01:20:43;;;;;;;5.75;3.27;;;;;;;3.86;79.97;100348.47;1726423;82;21024;-70
2022/11/01 01:23:11;;;;;;;6.35;3.40;;;;;;;3.85;80.22;100346.80;1717869;83;21653;-74
2022/11/01 01:25:42;;;;;;;7.22;3.52;;;;;;;3.90;80.26;100344.91;1688363;84;21028;-75
2022/11/01 01:28:09;;;;;;;4.65;4.12;;;;;;;3.91;80.46;100353.21;1688143;84;21103;-72
2022/11/01 01:30:40;;;;;;;8.00;3.77;;;;;;;3.92;80.41;100352.20;1717751;83;21577;-72
2022/11/01 01:33:08;;;;;;;4.15;2.33;;;;;;;3.90;80.60;100344.40;1713586;83;21091;-72
2022/11/01 01:35:36;;;;;;;5.75;3.52;;;;;;;3.90;80.64;100351.05;1675791;85;21210;-70
2022/11/01 01:38:04;;;;;;;5.92;3.95;;;;;;;3.86;80.65;100351.63;1708861;83;21565;-70
2022/11/01 01:40:31;;;;;;;8.40;3.37;;;;;;;3.83;80.78;100355.51;1703043;84;21056;-73
2022/11/01 01:42:59;;;;;;;4.92;2.92;;;;;;;3.82;80.92;100354.35;1700534;83;21098;-72
2022/11/01 01:45:33;;;;;;;4.47;3.37;;;;;;;3.79;81.01;100350.75;1714293;81;20952;-74
2022/11/01 01:48:18;;;;;;;4.80;3.33;;;;;;;3.80;81.12;100357.70;1706207;83;22129;-73
2022/11/01 01:50:57;;;;;;;6.87;3.75;;;;;;;3.81;81.24;100344.72;1711748;83;21067;-72
2022/11/01 01:53:28;;;;;;;5.15;2.95;;;;;;;3.81;81.36;100347.38;1694634;83;21014;-74
2022/11/01 01:56:01;;;;;;;3.75;2.90;;;;;;;3.81;81.58;100349.53;1651495;85;21103;-72
2022/11/01 01:58:32;;;;;;;3.98;3.20;;;;;;;3.79;81.66;100346.23;1649518;85;21125;-73
2022/11/01 02:00:58;;;;;;;3.80;2.87;;;;;;;3.78;81.86;100344.61;1672380;85;22138;-72
2022/11/01 02:03:31;;;;;;;5.53;3.08;;;;;;;3.75;82.06;100344.14;1687792;83;20970;-72
2022/11/01 02:06:03;;;;;;;7.03;3.08;;;;;;;3.73;82.19;100352.83;1700165;84;21043;-73
2022/11/01 02:08:31;;;;;;;6.85;3.40;;;;;;;3.71;82.36;100350.86;1685867;84;20951;-72
2022/11/01 02:11:03;;;;;;;4.78;2.80;;;;;;;3.73;82.71;100358.16;1682675;84;21101;-72
2022/11/01 02:13:31;;;;;;;4.53;3.55;;;;;;;3.73;82.71;100358.16;1658439;84;21001;-73
2022/11/01 02:16:32;;;;;;;4.53;2.83;;;;;;;3.72;82.74;100367.97;1693415;84;20963;-72
2022/11/01 02:19:38;;;;;;;4.12;2.98;;;;;;;3.73;82.83;100365.63;1658962;84;21344;-71
2022/11/01 02:22:16;;;;;;;4.42;2.83;;;;;;;3.74;82.82;100369.13;1665841;83;21066;-73
2022/11/01 02:25:39;;;;;;;5.67;3.12;;;;;;;3.73;82.80;100368.80;1684260;84;21025;-74
2022/11/01 02:28:39;;;;;;;3.20;2.90;;;;;;;3.69;82.86;100364.37;1683343;84;21125;-72
2022/11/01 02:31:29;;;;;;;8.03;3.10;;;;;;;3.64;82.96;100361.45;1662238;84;21022;-72
2022/11/01 02:33:59;;;;;;;6.53;3.45;;;;;;;3.62;83.20;100363.96;1681828;84;21009;-72
2022/11/01 02:36:46;;;;;;;3.35;3.05;;;;;;;3.58;83.47;100364.02;1685335;83;21017;-73
2022/11/01 02:39:22;;;;;;;5.33;2.70;;;;;;;3.57;83.64;100363.70;1702559;84;21075;-72
2022/11/01 02:42:20;;;;;;;3.87;3.08;;;;;;;3.60;83.77;100369.99;1704393;82;21817;-72
2022/11/01 02:44:56;;;;;;;3.65;3.00;;;;;;;3.62;83.91;100374.09;1634065;87;21097;-71
2022/11/01 02:47:23;;;;;;;6.35;2.85;;;;;;;3.65;83.87;100376.37;1621022;88;21103;-71
2022/11/01 02:49:51;;;;;;;5.42;3.98;;;;;;;3.66;83.93;100378.02;1672684;83;20988;-71
2022/11/01 02:52:22;;;;;;;2.62;2.25;;;;;;;3.67;83.87;100384.17;1706894;82;21045;-71
2022/11/01 02:54:52;;;;;;;3.52;2.62;;;;;;;3.63;83.90;100384.23;1732264;82;21115;-72
2022/11/01 02:57:36;;;;;;;4.83;2.70;;;;;;;3.61;83.96;100387.07;1691946;82;21019;-72
2022/11/01 03:00:22;;;;;;;5.58;3.17;;;;;;;3.58;83.97;100383.47;1733576;82;21072;-72
2022/11/01 03:02:58;;;;;;;4.47;3.25;;;;;;;3.55;84.11;100383.02;1685345;83;21481;-72
2022/11/01 03:05:46;;;;;;;6.10;2.58;;;;;;;3.54;84.31;100387.52;1717821;82;21552;-72
2022/11/01 03:08:18;;;;;;;4.87;3.72;;;;;;;3.55;84.50;100387.02;1706546;82;21264;-73
2022/11/01 03:10:59;;;;;;;4.25;2.85;;;;;;;3.57;84.56;100382.31;1705385;83;21022;-72
2022/11/01 03:13:55;;;;;;;6.83;2.70;;;;;;;3.58;84.64;100385.30;1672196;84;21045;-72
2022/11/01 03:17:06;;;;;;;4.60;2.52;;;;;;;3.58;84.60;100385.30;1670341;84;21017;-73
2022/11/01 03:20:05;;;;;;;4.03;3.17;;;;;;;3.58;84.66;100382.64;1705272;84;21120;-73
2022/11/01 03:22:57;;;;;;;5.60;3.02;;;;;;;3.54;84.68;100384.03;1681973;84;21257;-74
2022/11/01 03:25:40;;;;;;;6.62;2.77;;;;;;;3.50;84.86;100385.72;1684163;84;21523;-72
2022/11/01 03:28:32;;;;;;;6.45;4.08;;;;;;;3.48;85.06;100378.45;1682795;84;21055;-74
2022/11/01 03:31:07;;;;;;;8.00;4.47;;;;;;;3.50;85.20;100381.73;1684024;83;21115;-72
2022/11/01 03:33:39;;;;;;;5.60;3.25;;;;;;;3.52;85.35;100378.89;1710675;83;21044;-73
2022/11/01 03:36:09;;;;;;;5.15;3.12;;;;;;;3.59;85.39;100374.98;1695986;83;21146;-73
2022/11/01 03:38:38;;;;;;;6.17;3.58;;;;;;;3.62;85.35;100379.42;1656812;85;21040;-74
2022/11/01 03:41:10;;;;;;;8.90;3.95;;;;;;;3.63;85.25;100386.39;1649136;85;21058;-73
2022/11/01 03:43:37;;;;;;;4.05;3.15;;;;;;;3.63;85.17;100378.41;1680753;84;21696;-74
2022/11/01 03:46:04;;;;;;;4.85;4.12;;;;;;;3.62;85.04;100383.91;1659535;85;21077;-73
2022/11/01 03:48:31;;;;;;;4.80;2.80;;;;;;;3.57;85.00;100380.48;1680971;85;20946;-74
2022/11/01 03:50:59;;;;;;;7.30;3.90;;;;;;;3.54;85.10;100386.69;1680885;84;21648;-74
2022/11/01 03:53:26;;;;;;;8.48;3.77;;;;;;;3.51;85.22;100385.21;1698806;83;21016;-73
2022/11/01 03:55:54;;;;;;;6.37;3.27;;;;;;;3.48;85.38;100387.75;1680630;84;21090;-72
2022/11/01 03:58:21;;;;;;;5.45;3.75;;;;;;;3.47;85.53;100383.44;1722510;83;21560;-72
2022/11/01 04:00:49;;;;;;;4.75;3.22;;;;;;;3.50;85.84;100383.05;1679866;85;21576;-73
2022/11/01 04:03:16;;;;;;;6.35;3.47;;;;;;;3.54;85.84;100381.38;1635242;86;20989;-73
2022/11/01 04:05:42;;;;;;;5.28;3.30;;;;;;;3.56;85.86;100385.48;1674206;84;21106;-71
2022/11/01 04:08:10;;;;;;;3.37;2.87;;;;;;;3.58;85.86;100382.64;1678337;84;21049;-73
2022/11/01 04:10:38;;;;;;;4.17;3.72;;;;;;;3.56;85.82;100383.32;1647581;85;21058;-72
2022/11/01 04:13:06;;;;;;;5.42;3.25;;;;;;;3.56;85.85;100389.97;1692685;84;21039;-73
2022/11/01 04:21:13;;;;;;;11.15;3.98;;;;;;;3.50;86.14;100397.68;1670515;85;21094;-72
2022/11/01 04:23:42;;;;;;;5.45;3.47;;;;;;;3.51;86.18;100392.69;1656917;85;21077;-74
2022/11/01 04:26:16;;;;;;;8.98;5.42;;;;;;;3.51;86.29;100396.67;1663738;85;21153;-73
2022/11/01 04:28:55;;;;;;;5.00;3.58;;;;;;;3.51;86.33;100391.36;1670120;85;21023;-73
2022/11/01 04:31:11;;;;;;;6.33;3.42;;;;;;;3.51;86.19;100402.00;1671146;85;21142;-74
2022/11/01 04:33:38;;;;;;;8.53;4.67;;;;;;;3.48;86.07;100400.22;1667607;85;21037;-71
2022/11/01 04:36:06;;;;;;;9.10;4.47;;;;;;;3.41;85.85;100397.97;1700926;84;21022;-73
2022/11/01 04:38:33;;;;;;;7.47;3.98;;;;;;;3.34;85.78;100401.90;1678740;84;21615;-69
2022/11/01 04:40:59;;;;;;;8.00;4.45;;;;;;;3.28;85.75;100406.63;1691936;84;21567;-72
2022/11/01 04:43:26;;;;;;;5.20;4.25;;;;;;;3.21;85.76;100397.75;1667941;84;21529;-70
2022/11/01 04:45:54;;;;;;;13.45;6.33;;;;;;;3.18;85.88;100403.92;1649649;85;21128;-71
2022/11/01 04:48:21;;;;;;;13.45;7.58;;;;;;;3.13;85.99;100404.97;1649799;87;21014;-74
2022/11/01 04:50:49;;;;;;;11.97;5.28;;;;;;;3.11;86.13;100406.51;1649834;87;21775;-74
2022/11/01 04:53:16;;;;;;;11.50;5.35;;;;;;;3.08;86.19;100408.19;1693313;84;21031;-74
2022/11/01 04:55:43;;;;;;;10.95;4.75;;;;;;;3.06;86.34;100415.53;1692480;84;21050;-71
2022/11/01 04:58:09;;;;;;;10.90;8.05;;;;;;;3.04;86.43;100416.20;1671479;85;21042;-73
2022/11/01 05:00:38;;;;;;;7.58;4.42;;;;;;;2.99;86.56;100412.77;1671422;85;21077;-72
2022/11/01 05:03:06;;;;;;;6.72;4.92;;;;;;;2.96;86.77;100417.14;1690523;84;21704;-73
2022/11/01 05:05:33;;;;;;;8.95;5.60;;;;;;;2.93;86.99;100415.33;1668938;85;20939;-72
2022/11/01 05:08:09;;;;;;;14.40;4.78;;;;;;;2.90;87.22;100413.05;1680075;85;21022;-72
2022/11/01 05:10:42;;;;;;;8.60;4.85;;;;;;;2.88;87.47;100412.39;1671263;85;21051;-73
2022/11/01 05:13:10;;;;;;;8.13;4.70;;;;;;;2.86;87.63;100413.92;1682321;85;21518;-72
2022/11/01 05:15:37;;;;;;;10.45;4.58;;;;;;;2.88;87.80;100408.41;1668925;86;21222;-73
2022/11/01 05:18:06;;;;;;;9.80;5.83;;;;;;;2.88;87.90;100404.42;1651245;86;21049;-71
2022/11/01 05:20:34;;;;;;;11.25;7.42;;;;;;;2.89;87.92;100402.09;1681000;85;20950;-72
2022/11/01 05:23:03;;;;;;;6.42;4.53;;;;;;;2.87;87.97;100404.95;1673029;85;21075;-73
2022/11/01 05:25:31;;;;;;;12.47;5.75;;;;;;;2.86;88.01;100408.61;1674139;84;21544;-70
2022/11/01 05:28:06;;;;;;;12.00;5.87;;;;;;;2.84;88.10;100402.64;1674182;85;21864;-73
2022/11/01 05:30:34;;;;;;;6.03;4.85;;;;;;;2.85;88.18;100415.42;1674162;85;21140;-73
2022/11/01 05:33:01;;;;;;;11.48;6.42;;;;;;;2.85;88.33;100416.75;1670742;85;21055;-73
2022/11/01 05:35:29;;;;;;;11.35;5.62;;;;;;;2.87;88.40;100408.11;1651377;86;21097;-73
2022/11/01 05:37:56;;;;;;;9.10;5.47;;;;;;;2.89;88.43;100421.52;1680899;84;21139;-73
2022/11/01 05:40:22;;;;;;;9.50;6.90;;;;;;;2.91;88.41;100422.17;1686205;83;21212;-73
2022/11/01 05:42:49;;;;;;;10.48;5.90;;;;;;;2.91;88.30;100427.48;1682156;85;21032;-72
2022/11/01 05:45:17;;;;;;;7.92;4.58;;;;;;;2.91;88.32;100416.03;1680773;84;21056;-72
2022/11/01 05:47:44;;;;;;;11.55;6.25;;;;;;;2.90;88.38;100428.48;1667565;86;21007;-73
2022/11/01 05:50:13;;;;;;;15.20;5.65;;;;;;;2.88;88.38;100423.84;1680777;85;21033;-72
2022/11/01 05:52:41;;;;;;;11.55;6.80;;;;;;;2.87;88.43;100428.03;1661651;85;21603;-72
2022/11/01 05:55:09;;;;;;;8.65;4.28;;;;;;;2.89;88.61;100426.83;1644881;85;22193;-71
2022/11/01 05:57:37;;;;;;;8.63;5.58;;;;;;;2.92;88.77;100424.33;1651076;86;22180;-73
2022/11/01 06:00:05;;;;;;;9.10;6.05;;;;;;;2.98;88.83;100424.91;1680630;84;21541;-73
2022/11/01 06:02:34;;;;;;;9.83;5.37;;;;;;;3.03;88.90;100430.00;1629521;87;21014;-72
2022/11/01 06:05:00;;;;;;;11.88;6.75;;;;;;;3.10;88.87;100425.28;1673379;85;21195;-72
2022/11/01 06:07:28;;;;;;;8.15;5.03;;;;;;;3.14;88.83;100418.09;1653995;86;20985;-73
2022/11/01 06:09:56;;;;;;;8.43;5.03;;;;;;;3.19;88.75;100422.35;1699667;83;21595;-71
2022/11/01 06:12:24;;;;;;;13.83;5.85;;;;;;;3.22;88.73;100422.47;1688780;83;21082;-72
2022/11/01 06:14:52;;;;;;;12.40;5.33;;;;;;;3.24;88.64;100419.14;1696260;84;21041;-72
2022/11/01 06:17:18;;;;;;;8.08;5.53;;;;;;;3.26;88.73;100414.47;1707861;82;21232;-75
2022/11/01 06:19:45;;;;;;;8.60;5.22;;;;;;;3.30;88.80;100413.92;1733418;82;20981;-74
2022/11/01 06:22:13;;;;;;;10.28;5.92;;;;;;;3.36;88.83;100421.13;1702551;83;20991;-72
2022/11/01 06:24:40;;;;;;;10.23;5.50;;;;;;;3.44;88.90;100426.38;1684106;83;21089;-73
2022/11/01 06:27:07;;;;;;;10.20;6.08;;;;;;;3.55;88.76;100422.38;1682222;85;21114;-75
2022/11/01 06:29:33;;;;;;;9.13;5.78;;;;;;;3.63;88.66;100420.97;1682836;85;21790;-71
2022/11/01 06:32:03;;;;;;;7.58;4.72;;;;;;;3.70;88.42;100423.19;1689684;83;21495;-72
2022/11/01 06:34:31;;;;;;;6.92;4.20;;;;;;;3.76;88.15;100422.44;1650475;87;20997;-72
2022/11/01 06:36:58;;;;;;;10.23;5.72;;;;;;;3.79;87.98;100421.26;1679346;84;21477;-74
2022/11/01 06:39:25;;;;;;;12.73;5.85;;;;;;;3.81;87.86;100420.55;1670255;85;21527;-72
2022/11/01 06:41:51;;;;;;;14.78;5.67;;;;;;;3.84;87.70;100423.64;1690392;84;21761;-72
2022/11/01 11:30:06;;;;;;;3.25;2.10;;;;;;;11.54;43.54;100284.17;1751138;80;23935;-71
2022/11/01 11:32:37;;;;;;;3.83;2.43;;;;;;;11.72;42.56;100287.50;1713313;83;21044;-75
2022/11/01 11:35:17;;;;;;;4.17;2.35;;;;;;;11.92;41.70;100275.44;1729206;81;21790;-74
2022/11/01 11:37:56;;;;;;;2.60;2.30;;;;;;;12.08;41.61;100283.55;1736148;81;22181;-74
2022/11/01 11:40:25;;;;;;;3.55;2.35;;;;;;;12.25;40.96;100282.18;1734795;82;21022;-72
2022/11/01 11:42:54;;;;;;;5.97;2.60;;;;;;;12.32;40.89;100282.84;1708095;81;20920;-77
2022/11/01 11:45:28;;;;;;;4.80;2.47;;;;;;;12.39;40.40;100284.83;1745459;81;21038;-75
2022/11/01 11:48:01;;;;;;;2.55;2.33;;;;;;;12.29;40.45;100286.02;1718927;82;21169;-74
2022/11/01 11:50:33;;;;;;;3.05;2.75;;;;;;;12.29;40.18;100287.89;1722394;82;20920;-76
2022/11/01 11:53:06;;;;;;;3.47;1.90;;;;;;;12.34;40.06;100291.48;1732431;81;21018;-72
2022/11/01 11:55:55;;;;;;;;;;;;;;;12.44;38.23;100294.34;1720907;81;21059;-70
2022/11/01 11:58:36;;;;;;;4.55;3.27;;;;;;;12.50;38.28;100297.94;1724838;82;20483;-70
2022/11/01 12:01:16;;;;;;;4.35;2.37;;;;;;;12.57;38.98;100289.13;1737589;81;22772;-70
2022/11/01 12:04:01;;;;;;;2.62;2.08;;;;;;;12.54;37.80;100294.50;1735644;82;20992;-75
2022/11/01 12:06:28;;;;;;;3.85;2.98;;;;;;;12.39;37.34;100295.61;1735612;81;21153;-72
2022/11/01 12:08:58;;;;;;;3.83;2.40;;;;;;;12.22;38.07;100301.56;1728877;82;21103;-72
2022/11/01 12:11:39;;;;;;;4.05;2.58;;;;;;;12.22;38.35;100303.73;1740965;80;21039;-74
2022/11/01 12:14:18;;;;;;;3.35;2.30;;;;;;;12.30;38.12;100301.67;1726449;81;21208;-73
2022/11/01 12:16:45;;;;;;;5.53;2.35;;;;;;;12.24;38.87;100296.19;1720544;82;21018;-72
2022/11/01 12:19:28;;;;;;;3.95;2.27;;;;;;;12.22;38.38;100298.34;1755902;81;20943;-73
2022/11/01 12:22:00;;;;;;;4.03;2.75;;;;;;;12.25;37.45;100301.06;1734282;82;21567;-72
2022/11/01 12:24:34;;;;;;;3.47;2.95;;;;;;;12.30;37.75;100298.44;1750537;80;21038;-71
2022/11/01 12:27:05;;;;;;;4.17;2.70;;;;;;;12.35;38.05;100300.41;1762165;80;21041;-75
2022/11/01 12:29:53;;;;;;;8.73;6.35;;;;;;;12.41;38.36;100297.55;1748906;80;20978;-73
2022/11/01 12:32:28;;;;;;;8.50;3.15;;;;;;;12.46;38.41;100298.97;1689620;83;21073;-70
2022/11/01 12:35:00;;;;;;;4.83;2.85;;;;;;;12.51;38.62;100296.88;1680778;83;21487;-68
2022/11/01 12:37:48;;;;;;;2.62;2.35;;;;;;;12.54;38.46;100303.12;1721018;82;21115;-73
2022/11/01 12:40:31;;;;;;;3.02;2.75;;;;;;;12.55;38.92;100305.58;1711292;82;21345;-68
2022/11/01 12:43:03;;;;;;;3.50;2.27;;;;;;;12.61;38.75;100306.48;1740041;81;20969;-71
2022/11/01 12:45:53;;;;;;;3.60;2.27;;;;;;;12.63;38.67;100303.80;1654254;81;20997;-68
2022/11/01 12:48:25;;;;;;;4.30;2.60;;;;;;;12.66;38.21;100305.98;1739100;80;20895;-69
2022/11/01 12:51:00;;;;;;;15.65;12.93;;;;;;;12.64;37.99;100301.92;1742475;82;20950;-71
2022/11/01 12:53:47;;;;;;;8.03;3.70;;;;;;;12.65;38.01;100297.64;1717133;82;21123;-70
2022/11/01 12:56:14;;;;;;;3.30;2.37;;;;;;;12.55;37.23;100298.02;1724330;82;21713;-71
2022/11/01 12:58:41;;;;;;;2.70;2.20;;;;;;;12.46;37.56;100294.10;1726044;82;21003;-71
2022/11/01 13:01:43;;;;;;;6.90;2.40;;;;;;;12.42;37.49;100288.92;1720722;81;21033;-70
2022/11/01 13:04:34;;;;;;;4.03;2.87;;;;;;;12.36;38.03;100291.25;1719277;82;21518;-70
2022/11/01 13:07:34;;;;;;;3.65;1.87;;;;;;;12.40;38.28;100287.81;1727687;82;21207;-71
2022/11/01 13:10:27;;;;;;;3.08;2.50;;;;;;;12.29;38.04;100286.54;1721553;82;21003;-74
2022/11/01 13:13:33;;;;;;;5.12;2.40;;;;;;;12.25;37.67;100284.87;1722372;82;21033;-68
2022/11/01 13:16:22;;;;;;;6.65;2.55;;;;;;;12.17;36.78;100283.42;1734161;81;20939;-70
2022/11/01 13:19:00;;;;;;;3.12;2.40;;;;;;;12.08;37.32;100278.69;1734713;82;21664;-71
2022/11/01 13:21:37;;;;;;;3.35;2.37;;;;;;;12.10;37.28;100279.23;1721020;82;21407;-67
2022/11/01 13:24:37;;;;;;;3.12;2.55;;;;;;;12.10;37.26;100282.75;1739740;82;21658;-74
2022/11/01 13:27:23;;;;;;;2.92;2.52;;;;;;;12.10;37.47;100278.70;1727839;82;21076;-73
2022/11/01 13:30:03;;;;;;;8.73;2.80;;;;;;;12.08;37.53;100274.11;1728651;81;21493;-72
2022/11/01 13:32:35;;;;;;;4.78;2.58;;;;;;;11.99;37.79;100273.41;1746918;80;21047;-73
2022/11/01 13:35:24;;;;;;;4.95;2.60;;;;;;;11.94;38.04;100267.94;1764512;79;21283;-73
2022/11/01 13:38:30;;;;;;;4.58;3.05;;;;;;;11.91;38.26;100263.84;1748285;81;21131;-72
2022/11/01 13:41:18;;;;;;;4.58;3.20;;;;;;;11.89;38.53;100263.28;1761210;81;21439;-73
2022/11/01 13:43:42;;;;;;;6.70;3.65;;;;;;;11.90;38.57;100257.33;1727749;80;21031;-73
2022/11/01 13:46:43;;;;;;;5.17;3.12;;;;;;;11.88;38.84;100258.13;1742779;81;22299;-72
2022/11/01 13:49:28;;;;;;;4.65;2.77;;;;;;;11.84;38.97;100251.59;1756848;79;21220;-76
2022/11/01 13:52:03;;;;;;;9.78;3.08;;;;;;;11.78;39.35;100253.38;1759427;79;21533;-71
2022/11/01 13:55:07;;;;;;;10.15;2.67;;;;;;;11.76;39.49;100246.87;1763054;81;20967;-70
2022/11/01 13:57:35;;;;;;;4.12;2.80;;;;;;;11.73;39.59;100242.52;1752269;81;20996;-75
2022/11/01 14:00:08;;;;;;;3.67;2.70;;;;;;;11.65;39.86;100241.55;1725886;81;21059;-73
2022/11/01 14:02:50;;;;;;;5.35;2.90;;;;;;;11.60;40.01;100239.58;1755782;80;21591;-83
2022/11/01 14:05:17;;;;;;;8.53;3.98;;;;;;;11.55;40.35;100238.67;1732615;81;21050;-80
2022/11/01 14:07:52;;;;;;;11.88;7.60;;;;;;;11.53;40.62;100230.81;1748918;81;20972;-74
2022/11/01 14:10:34;;;;;;;10.08;3.60;;;;;;;11.46;41.00;100232.87;1759341;80;20979;-75
2022/11/01 14:13:12;;;;;;;6.92;3.30;;;;;;;11.44;41.52;100236.31;1760174;80;21074;-72
2022/11/01 14:16:00;;;;;;;4.05;3.15;;;;;;;11.39;42.01;100232.19;1724670;81;21610;-76
2022/11/01 14:18:27;;;;;;;3.85;2.55;;;;;;;11.27;42.31;100230.87;1760706;80;21030;-73
2022/11/01 14:20:56;;;;;;;4.33;2.60;;;;;;;11.16;42.80;100220.17;1754726;81;21065;-71
2022/11/01 14:23:32;;;;;;;6.00;2.62;;;;;;;11.09;42.99;100223.52;1783629;79;22372;-71
2022/11/01 14:26:20;;;;;;;3.00;2.70;;;;;;;11.03;43.21;100222.61;1740689;81;21019;-76
2022/11/01 14:28:55;;;;;;;4.95;4.08;;;;;;;10.95;43.41;100220.30;1719041;82;20935;-72
2022/11/01 14:31:24;;;;;;;8.58;4.65;;;;;;;10.85;43.98;100212.84;1761866;81;21024;-74
2022/11/01 19:41:40;;;;;;;28.83;17.48;;;;;;;8.31;52.61;100059.30;1734712;80;29641;-76
2022/11/01 19:44:15;;;;;;;26.55;14.95;;;;;;;8.34;52.43;100054.02;1695583;84;21046;-75
2022/11/01 19:46:43;;;;;;;20.50;13.98;;;;;;;8.41;52.29;100057.41;1729756;82;21034;-73
2022/11/01 19:49:25;;;;;;;20.05;12.93;;;;;;;8.46;52.18;100050.85;1709166;82;20958;-74
2022/11/01 19:52:26;;;;;;;23.18;12.53;;;;;;;8.47;52.09;100049.30;1687681;84;21018;-74
2022/11/01 19:54:52;;;;;;;21.25;12.43;;;;;;;8.46;52.13;100044.15;1716509;83;21026;-75
2022/11/01 19:57:33;;;;;;;22.42;12.37;;;;;;;8.43;52.26;100052.14;1707411;84;21030;-75
2022/11/01 20:00:20;;;;;;;26.17;15.50;;;;;;;8.39;52.41;100049.63;1706403;84;21298;-75
2022/11/01 20:02:49;;;;;;;19.25;13.08;;;;;;;8.39;52.55;100044.26;1728404;82;20974;-76
2022/11/01 20:05:32;;;;;;;24.43;14.30;;;;;;;8.38;52.75;100037.78;1724317;83;21201;-77
2022/11/01 20:08:13;;;;;;;21.33;12.53;;;;;;;8.36;52.96;100034.49;1695518;83;21092;-76
2022/11/01 20:10:40;;;;;;;25.15;13.13;;;;;;;8.35;53.15;100033.67;1712629;83;20980;-78
2022/11/01 20:13:06;;;;;;;20.25;12.78;;;;;;;8.34;53.34;100041.95;1720281;83;21125;-76
2022/11/01 20:15:33;;;;;;;20.17;13.45;;;;;;;8.33;53.50;100052.38;1715180;83;21036;-80
2022/11/01 20:18:00;;;;;;;24.80;13.93;;;;;;;8.29;53.65;100043.95;1718632;82;20986;-78
2022/11/01 20:20:28;;;;;;;22.55;14.40;;;;;;;8.27;53.79;100054.88;1721224;83;22202;-78
2022/11/01 20:22:55;;;;;;;22.42;14.18;;;;;;;8.26;53.96;100063.14;1721694;82;21041;-78
2022/11/01 20:25:22;;;;;;;19.85;14.63;;;;;;;8.27;54.12;100060.76;1728650;82;21213;-76
2022/11/01 20:27:48;;;;;;;21.57;15.20;;;;;;;8.29;54.21;100071.59;1713355;83;20972;-84
2022/11/01 20:30:16;;;;;;;19.00;14.30;;;;;;;8.31;54.32;100065.99;1712902;83;20953;-73
2022/11/01 20:32:43;;;;;;;21.55;13.68;;;;;;;8.32;54.40;100055.58;1721852;83;21084;-77
2022/11/01 20:35:10;;;;;;;24.52;16.20;;;;;;;8.34;54.54;100055.36;1724880;83;21028;-74
2022/11/01 20:37:37;;;;;;;21.15;14.85;;;;;;;8.30;54.93;100060.33;1718621;83;21177;-75
2022/11/01 20:40:06;;;;;;;23.20;14.90;;;;;;;8.24;55.09;100064.72;1724551;83;21092;-74
2022/11/01 20:42:32;;;;;;;31.12;16.87;;;;;;;8.24;55.24;100070.08;1723406;82;21044;-75
2022/11/01 20:44:59;;;;;;;25.65;15.78;;;;;;;8.26;55.24;100067.16;1701539;83;21548;-80
2022/11/01 20:47:25;;;;;;;23.60;14.63;;;;;;;8.27;55.37;100054.88;1710949;83;21068;-77
2022/11/01 20:49:52;;;;;;;29.07;18.60;;;;;;;8.30;55.49;100053.11;1720185;83;21057;-79
2022/11/01 20:52:20;;;;;;;31.02;17.45;;;;;;;8.28;55.60;100055.70;1722545;83;20977;-80
2022/11/01 20:54:47;;;;;;;29.00;16.95;;;;;;;8.26;55.73;100047.88;1721896;83;21015;-77
2022/11/01 20:57:13;;;;;;;29.92;18.15;;;;;;;8.25;55.81;100048.09;1714495;83;21033;-82
2022/11/01 20:59:41;;;;;;;28.62;19.67;;;;;;;8.26;55.91;100046.54;1723848;83;21056;-81
2022/11/01 21:02:11;;;;;;;28.15;16.75;;;;;;;8.28;55.92;100041.79;1723695;83;21135;-80
2022/11/01 21:04:39;;;;;;;31.37;16.57;;;;;;;8.30;55.95;100029.52;1720093;83;20988;-77
2022/11/01 21:07:12;;;;;;;27.90;16.32;;;;;;;8.31;55.95;100025.27;1721979;83;20982;-73
2022/11/01 21:09:45;;;;;;;25.08;13.15;;;;;;;8.33;55.94;100016.20;1715135;83;21520;-78
2022/11/01 21:12:46;;;;;;;17.00;12.43;;;;;;;8.35;55.77;100017.59;1711289;83;21067;-78
2022/11/01 21:15:28;;;;;;;19.48;12.40;;;;;;;8.37;55.61;100008.00;1718867;83;21024;-80
2022/11/01 21:18:09;;;;;;;21.07;12.35;;;;;;;8.39;55.55;100010.76;1686333;83;21087;-83
2022/11/01 21:20:43;;;;;;;27.50;13.70;;;;;;;8.42;55.64;100009.47;1714679;83;21081;-79
2022/11/01 21:23:31;;;;;;;30.45;14.03;;;;;;;8.43;55.73;100007.91;1721017;83;21048;-74
2022/11/01 21:26:11;;;;;;;21.87;13.50;;;;;;;8.43;55.83;100009.25;1711484;83;21048;-80
2022/11/01 21:28:53;;;;;;;35.03;17.87;;;;;;;8.44;55.85;100004.16;1721920;83;21191;-81
2022/11/01 21:31:30;;;;;;;24.47;15.95;;;;;;;8.40;55.95;100002.17;1718901;83;21012;-77
2022/11/01 21:34:13;;;;;;;25.02;14.50;;;;;;;8.33;56.11;99990.74;1719051;83;21086;-78
2022/11/01 21:36:41;;;;;;;;;;;;;;;8.24;56.40;99975.48;1712770;83;20957;-73
2022/11/01 21:39:18;;;;;;;27.25;15.70;;;;;;;8.18;56.50;99979.88;1709310;82;20186;-80
2022/11/01 21:41:47;;;;;;;33.38;20.75;;;;;;;8.18;56.61;99987.09;1714710;81;21036;-73
2022/11/01 21:44:25;;;;;;;28.50;14.90;;;;;;;8.16;56.74;100001.23;1719832;83;20945;-69
2022/11/01 21:47:10;;;;;;;24.32;15.35;;;;;;;8.18;56.80;100002.66;1721883;83;21037;-70
2022/11/01 21:49:37;;;;;;;24.27;16.45;;;;;;;8.25;56.68;100002.55;1721494;83;21104;-70
2022/11/01 21:52:06;;;;;;;25.72;14.83;;;;;;;8.27;56.79;100006.65;1723199;83;20996;-69
2022/11/01 21:54:38;;;;;;;22.17;14.47;;;;;;;8.31;56.80;100009.72;1721409;81;21103;-68
2022/11/01 21:57:07;;;;;;;26.85;13.55;;;;;;;8.37;56.82;100009.34;1719771;83;20993;-70